Time;durP1;ratioP1;P1;durP2;ratioP2;P2;SDS_P1;SDS_P2;PMS_P1;PMS_P2;Temp;Humidity;BMP_temperature;BMP_pressure;BME280_temperature;BME280_humidity;BME280_pressure;Samples;Min_cycle;Max_cycle;Signal;HPM_P1;HPM_P2
2024/03/20 16:08:17;;;;;;;22.40;12.73;;;;;;;;;;794921;170;706772;-67
2024/03/20 16:10:43;;;;;;;22.33;12.60;;;;;;;;;;761563;181;917116;-69
2024/03/20 16:13:09;;;;;;;20.87;12.70;;;;;;;;;;774480;177;908399;-69
2024/03/20 16:15:35;;;;;;;20.13;12.40;;;;;;;;;;775042;180;816559;-69
2024/03/20 16:18:01;;;;;;;21.40;12.83;;;;;;;;;;775914;177;815707;-69
2024/03/20 16:20:26;;;;;;;25.60;12.97;;;;;;;;;;777228;180;915875;-69
2024/03/20 16:22:54;;;;;;;28.30;15.03;;;;;;;;;;775117;179;888640;-68
2024/03/20 16:25:18;;;;;;;22.53;13.30;;;;;;;;;;779673;180;917345;-69
2024/03/20 16:27:45;;;;;;;22.10;13.20;;;;;;;;;;778226;179;930106;-68
2024/03/20 16:30:12;;;;;;;22.13;12.75;;;;;;;;;;774411;178;921032;-69
2024/03/20 16:32:38;;;;;;;24.97;13.07;;;;;;;;;;779039;178;919814;-68
2024/03/20 16:35:05;;;;;;;22.63;13.43;;;;;;;;;;770745;178;842388;-68
2024/03/20 16:37:30;;;;;;;26.37;13.57;;;;;;;;;;772787;180;938184;-68
2024/03/20 16:39:56;;;;;;;24.10;12.60;;;;;;;;;;780809;179;919963;-69
2024/03/20 16:42:22;;;;;;;19.77;12.20;;;;;;;;;;774957;177;819440;-69
2024/03/20 16:44:48;;;;;;;24.30;12.30;;;;;;;;;;773455;180;915753;-70
2024/03/20 16:47:16;;;;;;;20.67;12.30;;;;;;;;;;768549;177;823134;-70
2024/03/20 16:49:39;;;;;;;18.75;11.68;;;;;;;;;;772231;181;918861;-69
2024/03/20 16:52:06;;;;;;;22.67;11.97;;;;;;;;;;774689;181;907748;-68
2024/03/20 16:54:31;;;;;;;27.58;13.60;;;;;;;;;;773054;180;917560;-69
2024/03/20 16:56:57;;;;;;;22.03;13.23;;;;;;;;;;777793;180;838625;-68
2024/03/20 16:59:24;;;;;;;20.70;12.00;;;;;;;;;;774928;180;919167;-69
2024/03/20 17:01:49;;;;;;;20.70;13.15;;;;;;;;;;777034;178;917164;-70
2024/03/20 17:04:15;;;;;;;23.27;13.37;;;;;;;;;;783750;178;626502;-70
2024/03/20 17:06:40;;;;;;;27.40;12.17;;;;;;;;;;777797;180;636598;-69
2024/03/20 17:09:07;;;;;;;20.80;11.77;;;;;;;;;;777106;178;645986;-69
2024/03/20 17:11:32;;;;;;;26.13;13.13;;;;;;;;;;783938;177;618708;-70
2024/03/20 17:13:58;;;;;;;22.90;13.30;;;;;;;;;;773197;179;812290;-69
2024/03/20 17:16:24;;;;;;;25.30;13.73;;;;;;;;;;775495;177;633508;-68
2024/03/20 17:18:50;;;;;;;23.55;13.85;;;;;;;;;;779116;179;908421;-70
2024/03/20 17:21:16;;;;;;;26.50;11.90;;;;;;;;;;773378;178;918568;-68
2024/03/20 17:23:42;;;;;;;22.03;12.70;;;;;;;;;;773942;177;921021;-68
2024/03/20 17:26:07;;;;;;;18.30;11.30;;;;;;;;;;776561;177;917912;-68
2024/03/20 17:28:34;;;;;;;24.25;12.35;;;;;;;;;;780155;180;918690;-68
2024/03/20 17:30:59;;;;;;;23.97;12.60;;;;;;;;;;776044;178;920440;-69
2024/03/20 17:33:25;;;;;;;26.10;13.60;;;;;;;;;;773873;179;919303;-68
2024/03/20 17:35:52;;;;;;;27.30;13.30;;;;;;;;;;778894;178;921528;-69
2024/03/20 17:38:18;;;;;;;22.17;11.23;;;;;;;;;;772270;179;914663;-68
2024/03/20 17:40:43;;;;;;;25.70;11.60;;;;;;;;;;774516;180;909608;-69
2024/03/20 17:43:09;;;;;;;21.60;11.63;;;;;;;;;;776135;180;932748;-69
2024/03/20 17:45:35;;;;;;;26.03;15.17;;;;;;;;;;774655;178;917277;-68
2024/03/20 17:48:01;;;;;;;24.60;13.67;;;;;;;;;;773563;179;920044;-70
2024/03/20 17:50:27;;;;;;;30.30;13.07;;;;;;;;;;778853;180;926169;-69
2024/03/20 17:52:53;;;;;;;27.20;13.40;;;;;;;;;;755753;180;846686;-68
2024/03/20 17:55:18;;;;;;;30.47;16.07;;;;;;;;;;774078;177;815981;-69
2024/03/20 17:57:45;;;;;;;34.30;16.90;;;;;;;;;;770645;180;914414;-70
2024/03/20 18:00:14;;;;;;;28.50;15.27;;;;;;;;;;774263;179;903281;-68
2024/03/20 18:02:36;;;;;;;32.85;15.98;;;;;;;;;;771088;179;916329;-70
2024/03/20 18:05:02;;;;;;;25.53;14.83;;;;;;;;;;774751;177;915451;-69
2024/03/20 18:07:28;;;;;;;27.10;16.17;;;;;;;;;;779387;178;916423;-69
2024/03/20 18:09:54;;;;;;;28.50;15.73;;;;;;;;;;774611;177;919216;-69
2024/03/20 18:12:20;;;;;;;33.70;19.00;;;;;;;;;;771069;180;922457;-69
2024/03/20 18:14:46;;;;;;;32.67;18.93;;;;;;;;;;778317;179;825591;-69
2024/03/20 18:17:12;;;;;;;31.00;16.00;;;;;;;;;;775575;178;815373;-69
2024/03/20 18:19:41;;;;;;;38.65;19.90;;;;;;;;;;773715;177;917775;-69
2024/03/20 18:22:10;;;;;;;35.60;20.43;;;;;;;;;;774638;178;918619;-68
2024/03/20 18:24:29;;;;;;;35.47;18.77;;;;;;;;;;773870;181;922886;-68
2024/03/20 18:26:55;;;;;;;33.30;17.27;;;;;;;;;;772741;181;921079;-69
2024/03/20 18:29:21;;;;;;;38.57;20.13;;;;;;;;;;771585;178;916387;-70
2024/03/20 18:31:47;;;;;;;37.73;18.57;;;;;;;;;;777239;181;814664;-68
2024/03/20 18:34:14;;;;;;;31.03;17.13;;;;;;;;;;772592;180;920351;-68
2024/03/20 18:36:39;;;;;;;38.60;19.00;;;;;;;;;;775628;180;920427;-69
2024/03/20 18:39:11;;;;;;;32.83;18.30;;;;;;;;;;780243;178;919273;-69
2024/03/20 18:41:32;;;;;;;33.00;18.40;;;;;;;;;;773399;178;820229;-69
2024/03/20 18:43:56;;;;;;;32.07;16.43;;;;;;;;;;774859;180;816826;-70
2024/03/20 18:46:22;;;;;;;30.27;18.83;;;;;;;;;;780611;180;918896;-69
2024/03/20 18:48:48;;;;;;;33.75;18.85;;;;;;;;;;773514;180;918682;-69
2024/03/20 18:51:14;;;;;;;37.50;20.87;;;;;;;;;;773181;178;916556;-69
2024/03/20 18:53:40;;;;;;;37.73;20.77;;;;;;;;;;779808;177;865758;-68
2024/03/20 18:56:07;;;;;;;35.42;19.58;;;;;;;;;;771539;180;879516;-68
2024/03/20 18:58:31;;;;;;;38.20;18.83;;;;;;;;;;770564;180;919274;-69
2024/03/20 19:00:58;;;;;;;43.43;22.10;;;;;;;;;;773876;178;918649;-70
2024/03/20 19:03:23;;;;;;;38.37;20.63;;;;;;;;;;774130;179;891690;-68
2024/03/20 19:05:49;;;;;;;34.53;20.37;;;;;;;;;;772303;177;925128;-68
2024/03/20 19:08:15;;;;;;;43.03;20.00;;;;;;;;;;771254;180;920747;-69
2024/03/20 19:10:41;;;;;;;45.60;22.27;;;;;;;;;;777516;179;918832;-67
2024/03/20 19:13:06;;;;;;;39.90;20.90;;;;;;;;;;773677;180;900147;-69
2024/03/20 19:15:32;;;;;;;37.00;20.50;;;;;;;;;;773623;178;885172;-68
2024/03/20 19:17:58;;;;;;;51.37;23.87;;;;;;;;;;779758;178;919248;-69
2024/03/20 19:20:24;;;;;;;44.77;21.50;;;;;;;;;;769167;178;916497;-69
2024/03/20 19:22:50;;;;;;;41.50;21.40;;;;;;;;;;772267;180;929783;-68
2024/03/20 19:25:16;;;;;;;43.08;21.83;;;;;;;;;;777979;180;918907;-69
2024/03/20 19:27:42;;;;;;;47.70;23.13;;;;;;;;;;771286;180;915133;-69
2024/03/20 19:30:08;;;;;;;44.37;20.77;;;;;;;;;;773496;177;905137;-69
2024/03/20 19:32:35;;;;;;;49.75;21.90;;;;;;;;;;777920;178;822777;-69
2024/03/20 19:35:00;;;;;;;44.33;23.23;;;;;;;;;;771677;177;927758;-69
2024/03/20 19:37:26;;;;;;;51.87;24.07;;;;;;;;;;772230;177;912767;-69
2024/03/20 19:39:52;;;;;;;42.63;20.80;;;;;;;;;;773910;179;843547;-69
2024/03/20 19:42:18;;;;;;;42.60;22.07;;;;;;;;;;780803;178;902360;-69
2024/03/20 19:44:49;;;;;;;41.67;21.50;;;;;;;;;;776623;178;816157;-69
2024/03/20 19:47:12;;;;;;;47.40;22.13;;;;;;;;;;775035;179;906013;-69
2024/03/20 19:49:39;;;;;;;41.67;19.67;;;;;;;;;;780531;177;809930;-68
2024/03/20 19:52:04;;;;;;;38.40;18.30;;;;;;;;;;771195;179;919652;-69
2024/03/20 19:54:30;;;;;;;35.40;19.80;;;;;;;;;;776472;178;922690;-68
2024/03/20 19:56:56;;;;;;;43.57;19.60;;;;;;;;;;777586;178;916268;-68
2024/03/20 19:59:22;;;;;;;37.20;18.67;;;;;;;;;;771039;178;911882;-69
2024/03/20 20:01:48;;;;;;;52.65;21.92;;;;;;;;;;773494;178;914748;-69
2024/03/20 20:04:14;;;;;;;42.03;22.00;;;;;;;;;;774303;179;915498;-68
2024/03/20 20:06:40;;;;;;;40.23;18.13;;;;;;;;;;775865;177;818875;-68
2024/03/20 20:09:06;;;;;;;34.43;18.23;;;;;;;;;;771846;178;913506;-68
2024/03/20 20:11:31;;;;;;;32.00;17.60;;;;;;;;;;773229;177;915435;-67
2024/03/20 20:13:57;;;;;;;35.80;17.97;;;;;;;;;;781259;177;654058;-68
2024/03/20 20:16:23;;;;;;;39.07;21.00;;;;;;;;;;772927;177;914860;-69
2024/03/20 20:18:48;;;;;;;42.35;19.25;;;;;;;;;;770577;177;815506;-68
2024/03/20 20:21:15;;;;;;;38.00;20.03;;;;;;;;;;780095;180;912532;-68
2024/03/20 20:23:41;;;;;;;43.33;21.63;;;;;;;;;;774425;180;883375;-69
2024/03/20 20:26:06;;;;;;;29.48;15.10;;;;;;;;;;771067;177;916962;-68
2024/03/20 20:28:32;;;;;;;35.87;17.37;;;;;;;;;;775788;178;919408;-69
2024/03/20 20:30:58;;;;;;;34.33;17.50;;;;;;;;;;769202;177;918479;-68
2024/03/20 20:33:24;;;;;;;29.73;15.60;;;;;;;;;;774013;178;919672;-68
2024/03/20 20:35:50;;;;;;;36.55;18.73;;;;;;;;;;771871;180;919561;-69
2024/03/20 20:38:16;;;;;;;32.07;16.93;;;;;;;;;;776276;181;918891;-69
2024/03/20 20:40:43;;;;;;;30.57;18.70;;;;;;;;;;775025;180;919994;-69
2024/03/20 20:43:08;;;;;;;30.95;17.12;;;;;;;;;;774007;177;917877;-69
2024/03/20 20:45:34;;;;;;;31.20;17.40;;;;;;;;;;778500;178;902616;-69
2024/03/20 20:47:59;;;;;;;28.17;16.03;;;;;;;;;;770900;178;913140;-69
2024/03/20 20:50:25;;;;;;;29.10;17.37;;;;;;;;;;774756;177;815591;-68
2024/03/20 20:52:51;;;;;;;34.60;18.20;;;;;;;;;;780153;178;919886;-69
2024/03/20 20:55:18;;;;;;;33.63;18.70;;;;;;;;;;778509;177;912699;-69
2024/03/20 20:57:43;;;;;;;42.60;21.47;;;;;;;;;;775129;178;918609;-69
2024/03/20 21:00:09;;;;;;;32.67;19.63;;;;;;;;;;779899;177;920453;-68
2024/03/20 21:20:18;;;;;;;35.57;17.77;;;;;;;;;;774369;179;918664;-68
2024/03/20 21:22:42;;;;;;;33.80;20.67;;;;;;;;;;777900;179;919560;-69
2024/03/20 21:25:08;;;;;;;40.23;20.57;;;;;;;;;;773764;180;909165;-68
2024/03/20 21:27:34;;;;;;;39.63;20.10;;;;;;;;;;774245;179;940140;-68
2024/03/20 21:30:00;;;;;;;31.37;16.53;;;;;;;;;;777298;180;918433;-67
2024/03/20 21:32:26;;;;;;;31.05;19.08;;;;;;;;;;771154;178;921807;-68
2024/03/20 21:34:52;;;;;;;33.17;18.23;;;;;;;;;;772048;180;920516;-68
2024/03/20 21:37:18;;;;;;;31.23;16.90;;;;;;;;;;773220;180;822483;-69
2024/03/20 21:39:43;;;;;;;31.77;17.87;;;;;;;;;;774347;181;918795;-68
2024/03/20 21:42:09;;;;;;;32.30;16.37;;;;;;;;;;774605;181;815849;-69
2024/03/20 21:44:36;;;;;;;32.50;16.77;;;;;;;;;;775037;178;916163;-69
2024/03/20 21:47:02;;;;;;;27.63;15.13;;;;;;;;;;778597;178;915697;-68
2024/03/20 21:49:28;;;;;;;22.60;14.57;;;;;;;;;;773381;179;918752;-69
2024/03/20 21:51:53;;;;;;;25.60;14.60;;;;;;;;;;774874;178;816639;-68
2024/03/20 21:54:19;;;;;;;31.33;16.60;;;;;;;;;;776642;180;919628;-69
2024/03/20 21:56:45;;;;;;;29.20;16.23;;;;;;;;;;772993;177;919242;-68
2024/03/20 21:59:11;;;;;;;30.67;15.40;;;;;;;;;;773089;177;916903;-70
2024/03/20 22:01:37;;;;;;;32.77;17.73;;;;;;;;;;778197;180;914568;-68
2024/03/20 22:04:03;;;;;;;36.00;14.80;;;;;;;;;;773548;179;914521;-68
2024/03/20 22:06:29;;;;;;;29.30;15.10;;;;;;;;;;776553;178;818470;-69
2024/03/20 22:08:55;;;;;;;31.08;16.15;;;;;;;;;;779684;178;850844;-70
2024/03/20 22:11:21;;;;;;;23.53;14.27;;;;;;;;;;775084;177;818605;-69
2024/03/20 22:13:48;;;;;;;37.97;17.70;;;;;;;;;;769403;177;927696;-68
2024/03/20 22:16:12;;;;;;;27.73;16.70;;;;;;;;;;774079;178;912721;-68
2024/03/20 22:18:38;;;;;;;24.27;13.50;;;;;;;;;;778635;177;915572;-69
2024/03/20 22:21:05;;;;;;;28.23;16.70;;;;;;;;;;776630;177;817571;-68
2024/03/20 22:23:30;;;;;;;28.73;16.30;;;;;;;;;;773518;177;921624;-69
2024/03/20 22:25:56;;;;;;;30.87;18.00;;;;;;;;;;779379;178;916689;-69
2024/03/20 22:28:22;;;;;;;34.53;17.80;;;;;;;;;;775501;178;895138;-69
2024/03/20 22:30:52;;;;;;;29.73;17.03;;;;;;;;;;776669;180;921253;-69
2024/03/20 22:33:17;;;;;;;25.50;15.67;;;;;;;;;;775580;180;921912;-69
2024/03/20 22:35:44;;;;;;;28.77;15.10;;;;;;;;;;771885;180;917750;-68
2024/03/20 22:38:09;;;;;;;33.23;16.40;;;;;;;;;;770797;180;918526;-68
2024/03/20 22:40:35;;;;;;;31.57;16.20;;;;;;;;;;773183;181;921347;-70
2024/03/20 22:43:01;;;;;;;28.33;15.00;;;;;;;;;;773336;177;917618;-70
2024/03/20 22:45:27;;;;;;;28.97;17.20;;;;;;;;;;771044;179;922512;-68
2024/03/20 22:47:54;;;;;;;27.27;15.10;;;;;;;;;;772361;180;916065;-70
2024/03/20 22:50:18;;;;;;;24.30;14.38;;;;;;;;;;778727;178;919425;-69
2024/03/20 22:52:45;;;;;;;26.53;14.10;;;;;;;;;;775384;178;910473;-69
2024/03/20 22:55:11;;;;;;;27.27;14.90;;;;;;;;;;770566;180;921085;-69
2024/03/20 22:57:37;;;;;;;25.23;15.23;;;;;;;;;;775829;177;919686;-69
2024/03/20 23:00:16;;;;;;;25.00;15.60;;;;;;;;;;772234;180;912627;-70
2024/03/20 23:02:29;;;;;;;25.43;14.67;;;;;;;;;;770901;179;920274;-70
2024/03/20 23:04:56;;;;;;;30.97;16.57;;;;;;;;;;778050;178;808414;-68
2024/03/20 23:07:20;;;;;;;32.77;16.90;;;;;;;;;;775694;177;811820;-68
2024/03/20 23:09:46;;;;;;;31.67;17.80;;;;;;;;;;771204;180;917870;-68
2024/03/20 23:12:12;;;;;;;31.02;15.75;;;;;;;;;;771504;181;900700;-69
2024/03/20 23:14:38;;;;;;;31.63;16.17;;;;;;;;;;779035;178;721124;-70
2024/03/20 23:17:05;;;;;;;25.07;14.10;;;;;;;;;;775264;180;816553;-69
2024/03/20 23:19:30;;;;;;;26.40;15.10;;;;;;;;;;778989;177;815616;-71
2024/03/20 23:21:55;;;;;;;25.43;15.40;;;;;;;;;;778113;180;887070;-70
2024/03/20 23:24:23;;;;;;;23.50;13.33;;;;;;;;;;775760;177;917881;-70
2024/03/20 23:26:47;;;;;;;22.83;13.43;;;;;;;;;;775194;180;814383;-69
2024/03/20 23:29:13;;;;;;;24.73;13.33;;;;;;;;;;778206;180;816634;-71
2024/03/20 23:31:39;;;;;;;24.90;14.50;;;;;;;;;;773452;180;916624;-69
2024/03/20 23:34:05;;;;;;;20.53;12.60;;;;;;;;;;771470;179;919057;-70
2024/03/20 23:36:30;;;;;;;20.67;11.93;;;;;;;;;;781907;180;880056;-70
2024/03/20 23:38:56;;;;;;;26.17;15.00;;;;;;;;;;776513;177;917910;-70
2024/03/20 23:41:22;;;;;;;31.90;16.67;;;;;;;;;;773407;180;852413;-70
2024/03/20 23:43:48;;;;;;;31.00;16.47;;;;;;;;;;777497;180;917549;-71
2024/03/20 23:46:14;;;;;;;28.27;16.57;;;;;;;;;;775486;177;811405;-71
2024/03/20 23:48:40;;;;;;;26.70;16.20;;;;;;;;;;776493;177;816944;-70
2024/03/20 23:51:06;;;;;;;34.80;18.40;;;;;;;;;;774567;179;917367;-70
2024/03/20 23:53:31;;;;;;;31.87;16.17;;;;;;;;;;780344;178;713051;-71
2024/03/20 23:55:57;;;;;;;23.57;14.60;;;;;;;;;;774719;179;916265;-71
2024/03/20 23:58:23;;;;;;;29.50;15.77;;;;;;;;;;772889;180;918073;-68
